GMME

Rabat-Salé Airport

Rabat, Morocco
METAR GMME 201930Z VRB01KT 8000 SCT033 SCT100 18/14 Q1014 NOSIG
Observed Flight Rules
Oct-20 @ 19:30 UTC (34 minutes ago) Marginal Visual Flight Rules
Wind Visibility Clouds
Variable at 1 knots 7,998 meters
  • Scattered at 3,300' AGL
  • Scattered at 10,000' AGL
Temperatures Readings
Current 18°C / 64°F
Dewpoint 14°C / 57°F
Humidity 78%
Altimeter 29.94" Hg
Pressure 1014 hPa
Elevation 75
METAR GMME 201930Z VRB01KT 8000 SCT033 SCT100 18/14 Q1014 NOSIG
Observed Flight Rules
Oct-20 @ 19:30 UTC
(34 minutes ago)
MVFR
Wind Visibility
Variable at 1 knots 7,998 meters
Clouds
  • Scattered at 3,300' AGL
  • Scattered at 10,000' AGL
Temperature Dewpoint
18°C / 64°F 14°C / 57°F
Humidity Altimeter Pressure
78% 29.94" Hg 1014 hPa